Time;durP1;ratioP1;P1;durP2;ratioP2;P2;SDS_P1;SDS_P2;PMS_P1;PMS_P2;Temp;Humidity;BMP_temperature;BMP_pressure;BME280_temperature;BME280_humidity;BME280_pressure;Samples;Min_cycle;Max_cycle;Signal;HPM_P1;HPM_P2
2022/05/23 00:00:58;;;;;;;;;;;21.20;44.70;;;;;;4927620;29;20025;-59
2022/05/23 00:03:24;;;;;;;;;;;21.30;44.80;;;;;;4931040;28;19927;-60
2022/05/23 00:05:51;;;;;;;;;;;21.30;44.80;;;;;;4931141;28;19981;-60
2022/05/23 00:08:21;;;;;;;;;;;21.20;44.70;;;;;;4930493;29;20317;-60
2022/05/23 00:10:48;;;;;;;;;;;21.30;44.80;;;;;;4930995;28;19981;-60
2022/05/23 00:13:15;;;;;;;;;;;21.30;44.80;;;;;;4934835;28;19931;-60
2022/05/23 00:15:43;;;;;;;;;;;21.20;44.80;;;;;;4935618;28;20017;-59
2022/05/23 00:18:09;;;;;;;;;;;21.30;44.80;;;;;;4933490;28;19927;-58
2022/05/23 00:20:36;;;;;;;;;;;21.30;44.80;;;;;;4948306;28;20029;-59
2022/05/23 00:23:02;;;;;;;;;;;21.20;44.70;;;;;;4936153;28;19938;-59
2022/05/23 00:25:29;;;;;;;;;;;21.20;44.70;;;;;;4918254;28;19931;-59
2022/05/23 00:27:56;;;;;;;;;;;21.20;44.70;;;;;;4927803;28;20034;-59
2022/05/23 00:30:24;;;;;;;;;;;21.20;44.80;;;;;;4921470;28;19931;-57
2022/05/23 00:35:36;;;;;;;;;;;21.20;44.80;;;;;;4923136;28;20002;-59
2022/05/23 00:38:03;;;;;;;;;;;21.20;44.80;;;;;;4948111;28;20288;-58
2022/05/23 00:40:37;;;;;;;;;;;21.20;44.70;;;;;;4929304;28;19981;-59
2022/05/23 00:43:15;;;;;;;;;;;21.20;44.80;;;;;;4930387;28;20486;-58
2022/05/23 00:45:42;;;;;;;;;;;21.20;44.80;;;;;;4915225;28;20295;-58
2022/05/23 00:48:10;;;;;;;;;;;21.20;44.80;;;;;;4930331;28;20038;-59
2022/05/23 00:50:37;;;;;;;;;;;21.20;44.80;;;;;;4932084;28;20030;-59
2022/05/23 00:53:04;;;;;;;;;;;21.20;44.80;;;;;;4927856;28;19938;-59
2022/05/23 00:55:32;;;;;;;;;;;21.20;44.80;;;;;;4935409;28;19937;-60
2022/05/23 00:57:59;;;;;;;;;;;21.20;44.80;;;;;;4920263;28;19927;-60
2022/05/23 01:00:26;;;;;;;;;;;21.20;44.80;;;;;;4922228;28;20026;-59
2022/05/23 01:02:53;;;;;;;;;;;21.20;44.80;;;;;;4947520;28;20344;-60
2022/05/23 01:05:22;;;;;;;;;;;21.20;44.70;;;;;;4923907;29;19927;-58
2022/05/23 01:07:48;;;;;;;;;;;21.20;44.80;;;;;;4933412;28;19933;-60
2022/05/23 01:10:15;;;;;;;;;;;21.20;44.70;;;;;;4931242;28;19926;-59
2022/05/23 01:12:42;;;;;;;;;;;21.20;44.80;;;;;;4946681;28;19927;-59
2022/05/23 01:15:16;;;;;;;;;;;21.20;44.80;;;;;;4931185;29;19992;-57
2022/05/23 01:17:42;;;;;;;;;;;21.20;44.80;;;;;;4929438;28;19934;-60
2022/05/23 01:20:10;;;;;;;;;;;21.20;44.80;;;;;;4933896;28;20488;-60
2022/05/23 01:22:39;;;;;;;;;;;21.20;44.80;;;;;;4914876;28;20457;-59
2022/05/23 01:25:09;;;;;;;;;;;21.20;44.80;;;;;;4932281;28;20359;-60
2022/05/23 01:27:37;;;;;;;;;;;21.20;45.30;;;;;;4939631;28;19931;-58
2022/05/23 01:30:04;;;;;;;;;;;21.20;44.80;;;;;;4915945;28;20424;-58
2022/05/23 01:32:31;;;;;;;;;;;21.20;44.70;;;;;;4947454;28;20339;-59
2022/05/23 01:34:58;;;;;;;;;;;21.20;44.80;;;;;;4934225;28;20324;-59
2022/05/23 01:37:25;;;;;;;;;;;21.20;44.70;;;;;;4931106;28;20403;-60
2022/05/23 01:39:52;;;;;;;;;;;21.20;44.70;;;;;;4995971;28;19928;-60
2022/05/23 01:42:18;;;;;;;;;;;21.20;44.70;;;;;;4914659;29;20007;-58
2022/05/23 01:44:46;;;;;;;;;;;21.20;44.80;;;;;;4931344;28;20017;-60
2022/05/23 01:47:16;;;;;;;;;;;21.20;44.80;;;;;;4928200;29;19954;-60
2022/05/23 01:49:42;;;;;;;;;;;21.20;44.80;;;;;;4929101;28;19977;-60
2022/05/23 01:52:09;;;;;;;;;;;21.20;44.80;;;;;;4926752;28;20008;-59
2022/05/23 01:54:36;;;;;;;;;;;21.20;44.80;;;;;;4914035;28;20343;-59
2022/05/23 01:57:02;;;;;;;;;;;21.20;44.80;;;;;;4914673;28;19933;-59
2022/05/23 02:02:14;;;;;;;;;;;21.20;44.80;;;;;;4945690;28;19933;-58
2022/05/23 02:04:41;;;;;;;;;;;21.20;44.80;;;;;;4925831;28;19997;-60
2022/05/23 02:07:08;;;;;;;;;;;21.20;44.80;;;;;;4930691;28;19970;-59
2022/05/23 02:09:34;;;;;;;;;;;21.20;44.80;;;;;;4946745;28;19931;-59
2022/05/23 02:12:01;;;;;;;;;;;21.20;44.80;;;;;;4939620;28;19992;-58
2022/05/23 02:14:28;;;;;;;;;;;21.20;44.80;;;;;;4928941;28;20001;-59
2022/05/23 02:16:55;;;;;;;;;;;21.10;44.70;;;;;;4917652;28;20034;-59
2022/05/23 02:19:23;;;;;;;;;;;21.20;44.80;;;;;;4940765;28;19931;-60
2022/05/23 02:21:49;;;;;;;;;;;21.20;44.80;;;;;;4938093;28;20307;-58
2022/05/23 02:24:16;;;;;;;;;;;21.10;44.70;;;;;;4929062;28;19927;-59
2022/05/23 02:26:43;;;;;;;;;;;21.20;44.80;;;;;;4930222;28;19933;-60
2022/05/23 02:29:11;;;;;;;;;;;21.10;44.70;;;;;;4931423;28;20026;-56
2022/05/23 02:31:38;;;;;;;;;;;21.10;44.70;;;;;;4932035;28;19926;-60
2022/05/23 02:34:05;;;;;;;;;;;21.20;44.80;;;;;;5008478;28;19941;-58
2022/05/23 02:36:33;;;;;;;;;;;21.20;44.80;;;;;;4932056;29;19939;-59
2022/05/23 02:38:59;;;;;;;;;;;21.10;44.80;;;;;;4952896;28;19989;-60
2022/05/23 02:41:26;;;;;;;;;;;21.10;44.70;;;;;;4931057;28;19954;-59
2022/05/23 02:43:53;;;;;;;;;;;21.10;44.70;;;;;;4949336;28;19927;-60
2022/05/23 02:46:19;;;;;;;;;;;21.10;44.70;;;;;;4927420;28;19927;-59
2022/05/23 02:48:48;;;;;;;;;;;21.20;44.80;;;;;;4945571;28;20052;-58
2022/05/23 02:51:14;;;;;;;;;;;21.20;44.80;;;;;;4954347;28;19960;-62
2022/05/23 02:53:42;;;;;;;;;;;21.20;44.80;;;;;;4930895;28;20025;-59
2022/05/23 02:56:10;;;;;;;;;;;21.10;44.70;;;;;;4932385;28;20022;-59
2022/05/23 02:58:37;;;;;;;;;;;21.10;44.70;;;;;;4937612;28;19931;-58
2022/05/23 03:01:04;;;;;;;;;;;21.10;44.70;;;;;;4947365;28;19927;-58
2022/05/23 03:03:29;;;;;;;;;;;21.10;44.70;;;;;;4932068;29;19961;-59
2022/05/23 03:05:56;;;;;;;;;;;21.10;44.70;;;;;;4948370;28;19974;-59
2022/05/23 03:08:24;;;;;;;;;;;21.10;44.70;;;;;;4934594;28;20341;-59
2022/05/23 03:10:52;;;;;;;;;;;21.10;44.70;;;;;;4931015;29;19926;-59
2022/05/23 03:13:19;;;;;;;;;;;21.10;44.70;;;;;;4932100;28;19933;-60
2022/05/23 03:15:45;;;;;;;;;;;21.10;44.70;;;;;;4947928;28;19931;-59
2022/05/23 03:18:12;;;;;;;;;;;21.10;44.70;;;;;;4945163;28;19966;-59
2022/05/23 03:20:39;;;;;;;;;;;21.10;44.70;;;;;;4946351;29;19996;-58
2022/05/23 03:28:35;;;;;;;;;;;21.10;44.70;;;;;;5013229;28;20062;-60
2022/05/23 03:31:03;;;;;;;;;;;21.10;44.70;;;;;;4945632;28;19950;-59
2022/05/23 03:33:30;;;;;;;;;;;21.10;44.70;;;;;;4945623;28;20442;-60
2022/05/23 03:35:56;;;;;;;;;;;21.10;44.70;;;;;;4934770;28;19930;-60
2022/05/23 03:38:23;;;;;;;;;;;21.10;44.70;;;;;;4931046;28;19930;-58
2022/05/23 03:40:50;;;;;;;;;;;21.10;44.70;;;;;;4937313;28;19933;-59
2022/05/23 03:43:16;;;;;;;;;;;21.10;44.70;;;;;;4927745;29;19966;-59
2022/05/23 03:45:44;;;;;;;;;;;21.10;44.70;;;;;;5006808;28;19930;-58
2022/05/23 03:48:11;;;;;;;;;;;21.10;44.70;;;;;;4926529;28;19977;-59
2022/05/23 03:50:38;;;;;;;;;;;21.10;44.70;;;;;;4922809;28;19934;-59
2022/05/23 03:53:05;;;;;;;;;;;21.10;44.70;;;;;;4949842;28;19927;-59
2022/05/23 03:55:32;;;;;;;;;;;21.10;44.70;;;;;;4923611;28;20344;-58
2022/05/23 03:57:58;;;;;;;;;;;21.10;44.70;;;;;;4931789;28;19933;-57
2022/05/23 04:00:25;;;;;;;;;;;21.10;44.70;;;;;;4945887;28;20130;-59
2022/05/23 04:02:53;;;;;;;;;;;21.10;44.70;;;;;;4929264;28;19927;-59
2022/05/23 04:05:20;;;;;;;;;;;21.10;44.70;;;;;;4930602;28;20567;-59
2022/05/23 04:07:47;;;;;;;;;;;21.10;44.60;;;;;;4930048;29;19931;-59
2022/05/23 04:10:14;;;;;;;;;;;21.10;44.70;;;;;;4930623;28;19973;-57
2022/05/23 04:12:41;;;;;;;;;;;21.10;44.70;;;;;;4955342;28;19975;-59
2022/05/23 04:15:08;;;;;;;;;;;21.10;44.60;;;;;;4925120;28;20466;-60
2022/05/23 04:17:34;;;;;;;;;;;21.10;44.60;;;;;;4927378;28;19931;-58
2022/05/23 04:20:02;;;;;;;;;;;21.10;44.70;;;;;;4944107;28;20002;-58
2022/05/23 04:22:29;;;;;;;;;;;21.10;44.60;;;;;;4946136;28;20022;-57
2022/05/23 04:24:56;;;;;;;;;;;21.10;44.60;;;;;;4943890;29;19934;-60
2022/05/23 04:27:22;;;;;;;;;;;21.10;44.60;;;;;;4927780;28;20021;-59
2022/05/23 04:29:49;;;;;;;;;;;21.10;44.60;;;;;;4943579;28;20370;-58
2022/05/23 04:35:15;;;;;;;;;;;21.00;44.60;;;;;;4930976;29;20295;-57
2022/05/23 04:37:44;;;;;;;;;;;21.10;44.60;;;;;;4945172;28;20289;-58
2022/05/23 04:40:11;;;;;;;;;;;21.10;44.60;;;;;;4944099;28;20014;-59
2022/05/23 04:42:38;;;;;;;;;;;21.00;44.50;;;;;;4932091;28;19938;-58
2022/05/23 04:45:05;;;;;;;;;;;21.10;44.60;;;;;;4926268;29;19962;-58
2022/05/23 04:50:16;;;;;;;;;;;21.10;44.60;;;;;;4936922;28;20348;-59
2022/05/23 04:52:44;;;;;;;;;;;21.10;44.60;;;;;;4948174;28;19937;-58
2022/05/23 04:55:10;;;;;;;;;;;21.10;44.60;;;;;;4947333;28;19931;-59
2022/05/23 04:57:37;;;;;;;;;;;21.10;44.60;;;;;;4930676;28;19927;-58
2022/05/23 05:00:06;;;;;;;;;;;21.10;44.60;;;;;;4946908;28;20351;-59
2022/05/23 05:02:33;;;;;;;;;;;21.00;44.50;;;;;;5016211;28;19959;-59
2022/05/23 05:05:00;;;;;;;;;;;21.10;44.60;;;;;;4980799;28;20321;-59
2022/05/23 05:07:27;;;;;;;;;;;21.10;44.60;;;;;;4953642;28;19933;-59
2022/05/23 05:09:55;;;;;;;;;;;21.10;44.60;;;;;;4952701;28;19931;-58
2022/05/23 05:12:22;;;;;;;;;;;21.10;44.60;;;;;;4934556;28;19985;-58
2022/05/23 05:14:49;;;;;;;;;;;21.10;44.60;;;;;;4946554;28;20342;-60
2022/05/23 05:17:15;;;;;;;;;;;21.10;44.60;;;;;;4953695;28;20401;-56
2022/05/23 05:19:42;;;;;;;;;;;21.10;44.60;;;;;;4930272;29;19981;-58
2022/05/23 05:22:09;;;;;;;;;;;21.10;44.60;;;;;;4955708;28;20372;-59
2022/05/23 05:24:36;;;;;;;;;;;21.10;44.60;;;;;;4927760;28;19931;-58
2022/05/23 05:27:04;;;;;;;;;;;21.10;44.60;;;;;;4938140;28;19938;-59
2022/05/23 05:29:31;;;;;;;;;;;21.10;44.60;;;;;;4928951;28;20763;-57
2022/05/23 05:31:58;;;;;;;;;;;21.10;44.60;;;;;;4947814;28;19937;-58
2022/05/23 05:34:26;;;;;;;;;;;21.10;44.60;;;;;;4940680;28;20071;-59
2022/05/23 05:36:53;;;;;;;;;;;21.10;44.60;;;;;;4930757;28;19927;-59
2022/05/23 05:39:20;;;;;;;;;;;21.00;44.50;;;;;;4943760;28;19935;-59
2022/05/23 05:41:48;;;;;;;;;;;21.10;44.60;;;;;;4948298;28;19935;-60
2022/05/23 05:44:18;;;;;;;;;;;21.10;44.60;;;;;;4948027;28;20014;-60
2022/05/23 05:46:46;;;;;;;;;;;21.00;44.50;;;;;;4943716;28;19935;-60
2022/05/23 05:49:16;;;;;;;;;;;21.10;44.60;;;;;;4930186;28;19942;-60
2022/05/23 05:51:42;;;;;;;;;;;21.00;44.50;;;;;;4939537;28;19953;-59
2022/05/23 05:54:09;;;;;;;;;;;21.10;44.60;;;;;;4940838;28;19931;-57
2022/05/23 05:56:36;;;;;;;;;;;21.10;44.60;;;;;;4946905;28;20405;-59
2022/05/23 05:59:03;;;;;;;;;;;21.10;44.60;;;;;;4932209;28;19930;-58
2022/05/23 06:01:31;;;;;;;;;;;21.10;44.60;;;;;;4959671;28;19927;-59
2022/05/23 06:03:57;;;;;;;;;;;21.10;44.60;;;;;;4927606;29;19989;-56
2022/05/23 06:12:01;;;;;;;;;;;21.10;44.60;;;;;;4953433;28;20696;-57
2022/05/23 06:14:28;;;;;;;;;;;21.10;44.70;;;;;;4932652;28;20478;-59
2022/05/23 06:16:56;;;;;;;;;;;21.10;44.70;;;;;;4928284;28;19969;-57
2022/05/23 06:19:23;;;;;;;;;;;21.10;44.70;;;;;;4942733;28;20400;-57
2022/05/23 06:21:49;;;;;;;;;;;21.10;44.70;;;;;;4930989;28;19927;-57
2022/05/23 06:24:16;;;;;;;;;;;21.10;44.70;;;;;;4941106;28;20306;-58
2022/05/23 06:26:44;;;;;;;;;;;21.10;44.70;;;;;;4942013;28;20342;-59
2022/05/23 06:29:10;;;;;;;;;;;21.10;44.70;;;;;;4940987;28;19935;-57
2022/05/23 06:31:37;;;;;;;;;;;21.10;44.70;;;;;;4927440;28;19922;-55
2022/05/23 06:34:05;;;;;;;;;;;21.10;44.70;;;;;;4920364;28;20270;-56
2022/05/23 06:36:32;;;;;;;;;;;21.10;44.70;;;;;;4930974;28;20383;-59
2022/05/23 06:38:59;;;;;;;;;;;21.10;44.70;;;;;;4926288;28;19993;-58
2022/05/23 06:41:25;;;;;;;;;;;21.10;44.70;;;;;;4927624;28;20300;-56
2022/05/23 06:43:53;;;;;;;;;;;21.10;44.70;;;;;;4926641;28;20475;-59
2022/05/23 06:46:20;;;;;;;;;;;21.10;44.70;;;;;;4956647;28;20006;-60
2022/05/23 06:48:46;;;;;;;;;;;21.10;44.70;;;;;;4929547;29;19938;-58
2022/05/23 06:51:15;;;;;;;;;;;21.10;44.70;;;;;;4913576;28;19936;-59
2022/05/23 06:53:41;;;;;;;;;;;21.10;44.70;;;;;;4944869;28;20012;-57
2022/05/23 06:56:08;;;;;;;;;;;21.10;44.80;;;;;;4927663;28;20352;-57
2022/05/23 06:58:35;;;;;;;;;;;21.10;44.80;;;;;;4943924;28;20019;-59
2022/05/23 07:01:02;;;;;;;;;;;21.10;44.80;;;;;;4944917;28;20338;-60
2022/05/23 07:03:29;;;;;;;;;;;21.10;44.80;;;;;;4933196;28;19997;-60
2022/05/23 07:14:09;;;;;;;;;;;21.20;44.90;;;;;;4935840;28;19930;-58
2022/05/23 07:16:36;;;;;;;;;;;21.20;44.90;;;;;;4972792;28;19926;-59
2022/05/23 07:19:04;;;;;;;;;;;21.20;44.90;;;;;;4930922;28;19939;-59
2022/05/23 07:21:31;;;;;;;;;;;21.20;44.90;;;;;;4932767;28;20026;-59
2022/05/23 07:23:59;;;;;;;;;;;21.10;44.80;;;;;;4942904;28;19946;-58
2022/05/23 07:26:26;;;;;;;;;;;21.20;44.90;;;;;;4931942;28;19931;-60
2022/05/23 07:28:53;;;;;;;;;;;21.10;44.80;;;;;;4927437;28;19977;-59
2022/05/23 07:31:20;;;;;;;;;;;21.20;44.90;;;;;;4929908;28;19958;-59
2022/05/23 07:33:47;;;;;;;;;;;21.10;44.80;;;;;;4946309;28;19931;-60
2022/05/23 07:36:13;;;;;;;;;;;21.20;44.90;;;;;;4947110;28;19992;-58
2022/05/23 07:38:40;;;;;;;;;;;21.20;44.90;;;;;;4945103;28;19929;-58
2022/05/23 07:41:09;;;;;;;;;;;21.20;44.90;;;;;;4932119;28;20366;-60
2022/05/23 07:43:35;;;;;;;;;;;21.20;44.90;;;;;;4942002;28;19931;-59
2022/05/23 07:46:07;;;;;;;;;;;21.20;44.90;;;;;;4943972;28;19927;-60
2022/05/23 07:48:34;;;;;;;;;;;21.20;44.90;;;;;;4953949;28;19978;-60
2022/05/23 07:51:00;;;;;;;;;;;21.20;44.90;;;;;;4950986;28;19927;-60
2022/05/23 08:01:41;;;;;;;;;;;21.20;44.90;;;;;;4941806;28;19927;-58
2022/05/23 08:04:09;;;;;;;;;;;21.20;45.00;;;;;;4933853;28;20012;-61
2022/05/23 08:06:35;;;;;;;;;;;21.20;44.90;;;;;;4946036;28;19973;-60
2022/05/23 08:09:02;;;;;;;;;;;21.20;45.00;;;;;;4956750;28;19931;-60
2022/05/23 08:11:30;;;;;;;;;;;21.20;45.00;;;;;;4931443;28;19981;-59
2022/05/23 08:13:57;;;;;;;;;;;21.20;44.90;;;;;;4928986;29;20029;-59
2022/05/23 08:16:24;;;;;;;;;;;21.30;45.10;;;;;;4925980;28;20026;-60
2022/05/23 08:18:51;;;;;;;;;;;21.20;44.90;;;;;;4928858;28;19927;-60
2022/05/23 08:21:17;;;;;;;;;;;21.20;44.90;;;;;;4924849;28;19938;-59
2022/05/23 08:23:44;;;;;;;;;;;21.20;45.00;;;;;;4942302;28;19927;-58
2022/05/23 08:26:11;;;;;;;;;;;21.20;44.90;;;;;;4942740;28;19934;-59
2022/05/23 08:28:39;;;;;;;;;;;21.30;45.00;;;;;;4943208;29;20009;-58
2022/05/23 08:31:06;;;;;;;;;;;21.30;45.00;;;;;;4947733;28;19973;-59
2022/05/23 08:33:32;;;;;;;;;;;21.20;44.90;;;;;;4941425;28;19927;-60
2022/05/23 08:35:59;;;;;;;;;;;21.30;45.00;;;;;;4942885;28;20322;-59
2022/05/23 08:38:26;;;;;;;;;;;21.30;45.00;;;;;;4937566;28;19934;-60
2022/05/23 08:40:56;;;;;;;;;;;21.30;45.00;;;;;;4932006;28;19931;-59
2022/05/23 08:43:26;;;;;;;;;;;21.30;45.00;;;;;;4944904;28;19935;-60
2022/05/23 08:45:55;;;;;;;;;;;21.30;45.00;;;;;;4943696;28;20392;-59
2022/05/23 08:48:27;;;;;;;;;;;21.30;45.00;;;;;;4935973;28;19934;-60
2022/05/23 08:50:56;;;;;;;;;;;21.30;45.00;;;;;;4935015;28;19934;-58
2022/05/23 08:53:25;;;;;;;;;;;21.30;45.00;;;;;;4909180;28;20400;-57
2022/05/23 08:55:53;;;;;;;;;;;21.30;44.90;;;;;;4944640;28;20033;-60
2022/05/23 08:58:21;;;;;;;;;;;21.30;45.00;;;;;;4923260;28;19938;-59
2022/05/23 09:00:49;;;;;;;;;;;21.30;45.00;;;;;;4929816;28;19934;-61
2022/05/23 09:03:19;;;;;;;;;;;21.30;44.90;;;;;;4931201;28;20303;-60
2022/05/23 09:05:47;;;;;;;;;;;21.30;44.90;;;;;;4930462;28;19926;-59
2022/05/23 09:08:15;;;;;;;;;;;21.30;44.90;;;;;;4956862;28;19933;-59
2022/05/23 09:10:42;;;;;;;;;;;21.30;44.90;;;;;;4928296;28;20284;-59
2022/05/23 09:13:08;;;;;;;;;;;21.30;44.90;;;;;;4932417;28;19927;-59
2022/05/23 09:15:35;;;;;;;;;;;21.30;44.90;;;;;;4943663;28;20384;-58
2022/05/23 09:18:03;;;;;;;;;;;21.30;44.90;;;;;;4941260;28;19931;-59
2022/05/23 09:20:34;;;;;;;;;;;21.30;44.90;;;;;;4939618;28;20021;-59
2022/05/23 09:23:01;;;;;;;;;;;21.30;44.90;;;;;;4957028;28;19973;-59
2022/05/23 09:25:28;;;;;;;;;;;21.30;44.90;;;;;;4929809;28;19927;-60
2022/05/23 09:28:03;;;;;;;;;;;21.30;44.90;;;;;;4945457;28;19930;-58
2022/05/23 09:30:30;;;;;;;;;;;21.30;44.90;;;;;;4932559;28;20132;-58
2022/05/23 09:32:57;;;;;;;;;;;21.30;44.90;;;;;;4934891;28;19997;-58
2022/05/23 09:35:24;;;;;;;;;;;21.30;44.90;;;;;;4930050;28;20406;-58
2022/05/23 09:38:05;;;;;;;;;;;21.40;45.00;;;;;;4929269;28;20384;-59
2022/05/23 09:40:32;;;;;;;;;;;21.30;44.90;;;;;;4951462;28;19931;-60
2022/05/23 09:49:00;;;;;;;;;;;21.30;44.90;;;;;;4991610;28;19933;-59
2022/05/23 09:51:27;;;;;;;;;;;21.40;44.90;;;;;;4988295;28;20294;-60
2022/05/23 09:53:55;;;;;;;;;;;21.40;44.90;;;;;;4958315;28;20013;-57
2022/05/23 09:56:23;;;;;;;;;;;21.40;45.00;;;;;;4944481;28;20467;-58
2022/05/23 09:58:49;;;;;;;;;;;21.30;44.90;;;;;;4947956;28;19989;-56
2022/05/23 10:01:24;;;;;;;;;;;21.40;44.90;;;;;;5007771;28;19927;-58
2022/05/23 10:03:51;;;;;;;;;;;21.40;44.90;;;;;;4944271;28;20032;-58
2022/05/23 10:06:18;;;;;;;;;;;21.40;44.90;;;;;;4945361;28;19927;-60
2022/05/23 10:08:45;;;;;;;;;;;21.40;44.90;;;;;;4941960;28;19957;-59
2022/05/23 10:11:22;;;;;;;;;;;21.40;44.90;;;;;;4940524;28;20292;-59
2022/05/23 10:13:52;;;;;;;;;;;21.40;44.90;;;;;;4949772;28;19934;-58
2022/05/23 10:16:23;;;;;;;;;;;21.40;44.90;;;;;;4946918;28;20376;-58
2022/05/23 10:18:51;;;;;;;;;;;21.40;44.90;;;;;;4934363;28;19957;-59
2022/05/23 10:21:24;;;;;;;;;;;21.40;44.90;;;;;;4926513;28;19949;-59
2022/05/23 10:23:58;;;;;;;;;;;21.40;45.00;;;;;;4928962;28;19935;-57
2022/05/23 10:26:26;;;;;;;;;;;21.40;44.90;;;;;;4948387;28;19927;-58
2022/05/23 10:28:54;;;;;;;;;;;21.40;45.00;;;;;;4932882;28;20009;-55
2022/05/23 10:31:22;;;;;;;;;;;21.40;45.00;;;;;;4928278;29;20504;-57
2022/05/23 10:33:50;;;;;;;;;;;21.40;44.90;;;;;;4928913;29;20450;-58
2022/05/23 10:36:18;;;;;;;;;;;21.40;44.90;;;;;;4932698;28;19927;-58
2022/05/23 10:44:22;;;;;;;;;;;21.40;44.90;;;;;;5010575;28;19928;-58
2022/05/23 10:46:50;;;;;;;;;;;21.40;44.90;;;;;;4926730;28;20017;-59
2022/05/23 10:49:20;;;;;;;;;;;21.40;44.90;;;;;;4946054;28;19957;-59
2022/05/23 10:51:49;;;;;;;;;;;21.40;44.90;;;;;;4942562;28;20265;-57
2022/05/23 10:54:22;;;;;;;;;;;21.40;44.90;;;;;;4925820;28;19975;-59
2022/05/23 10:56:57;;;;;;;;;;;21.40;44.90;;;;;;4959421;28;20019;-58
2022/05/23 10:59:24;;;;;;;;;;;21.40;44.90;;;;;;4945850;28;19930;-57
2022/05/23 11:01:55;;;;;;;;;;;21.40;44.90;;;;;;4924516;28;19946;-60
2022/05/23 11:04:26;;;;;;;;;;;21.40;44.90;;;;;;4950460;28;19933;-60
2022/05/23 11:07:00;;;;;;;;;;;21.50;45.00;;;;;;4926321;29;20038;-57
2022/05/23 11:09:28;;;;;;;;;;;21.50;45.00;;;;;;4928194;28;19927;-60
2022/05/23 11:12:00;;;;;;;;;;;21.50;45.00;;;;;;4924935;28;20013;-60
2022/05/23 11:14:30;;;;;;;;;;;21.50;45.00;;;;;;4930520;28;19980;-61
2022/05/23 11:16:59;;;;;;;;;;;21.50;45.00;;;;;;4942018;28;19927;-59
2022/05/23 11:19:28;;;;;;;;;;;21.50;45.00;;;;;;4940991;28;20390;-57
2022/05/23 11:21:58;;;;;;;;;;;21.50;45.00;;;;;;4928620;28;19927;-59
2022/05/23 11:24:25;;;;;;;;;;;21.40;44.90;;;;;;4949751;28;19959;-59
2022/05/23 11:26:52;;;;;;;;;;;21.40;44.90;;;;;;4935370;28;19931;-59
2022/05/23 11:34:52;;;;;;;;;;;21.50;45.00;;;;;;4929542;28;19934;-59
2022/05/23 11:40:01;;;;;;;;;;;21.50;45.00;;;;;;4915462;28;19927;-57
2022/05/23 11:42:29;;;;;;;;;;;21.50;45.00;;;;;;4934300;28;20030;-58
2022/05/23 11:44:59;;;;;;;;;;;21.50;45.00;;;;;;4931271;28;19931;-59
2022/05/23 11:47:26;;;;;;;;;;;21.50;45.00;;;;;;4932785;28;19926;-59
2022/05/23 11:50:07;;;;;;;;;;;21.50;45.00;;;;;;4940109;28;20006;-59
2022/05/23 11:52:35;;;;;;;;;;;21.50;45.00;;;;;;4948894;28;19988;-60
2022/05/23 11:55:01;;;;;;;;;;;21.50;45.00;;;;;;4930959;28;19933;-57
2022/05/23 11:57:46;;;;;;;;;;;21.50;45.00;;;;;;4923625;28;20380;-59
2022/05/23 12:00:29;;;;;;;;;;;21.50;45.00;;;;;;4949940;28;20021;-58
2022/05/23 12:03:11;;;;;;;;;;;21.50;45.00;;;;;;4949524;28;20049;-59
2022/05/23 12:05:39;;;;;;;;;;;21.50;45.00;;;;;;4928451;28;19988;-58
2022/05/23 12:08:06;;;;;;;;;;;21.50;45.00;;;;;;4930389;29;19926;-59
2022/05/23 12:10:40;;;;;;;;;;;21.50;45.00;;;;;;4938335;28;19927;-59
2022/05/23 12:13:21;;;;;;;;;;;21.50;45.00;;;;;;4949763;28;19966;-59
2022/05/23 12:15:52;;;;;;;;;;;21.50;45.00;;;;;;4932522;28;19927;-59
2022/05/23 12:18:29;;;;;;;;;;;21.50;45.00;;;;;;4929590;28;19927;-59
2022/05/23 12:20:57;;;;;;;;;;;21.50;44.90;;;;;;4951877;28;19969;-59
2022/05/23 12:23:30;;;;;;;;;;;21.50;45.00;;;;;;4938641;28;19935;-60
2022/05/23 12:26:05;;;;;;;;;;;21.50;45.00;;;;;;4940621;28;19936;-61
2022/05/23 12:28:31;;;;;;;;;;;21.50;45.00;;;;;;4926761;28;19935;-59
2022/05/23 12:31:14;;;;;;;;;;;21.50;45.00;;;;;;4936911;28;19926;-57
2022/05/23 12:33:42;;;;;;;;;;;21.50;44.90;;;;;;4923619;28;20039;-60
2022/05/23 12:36:11;;;;;;;;;;;21.50;44.90;;;;;;4933042;28;19926;-60
2022/05/23 12:38:57;;;;;;;;;;;21.50;45.00;;;;;;4938260;28;19927;-59
2022/05/23 12:41:31;;;;;;;;;;;21.50;45.00;;;;;;4949486;28;19934;-58
2022/05/23 12:44:25;;;;;;;;;;;21.50;44.90;;;;;;4945441;28;19934;-59
2022/05/23 12:46:54;;;;;;;;;;;21.50;44.90;;;;;;4956598;28;19935;-60
2022/05/23 12:49:23;;;;;;;;;;;21.50;44.90;;;;;;4929482;28;19958;-59
2022/05/23 12:51:52;;;;;;;;;;;21.50;44.90;;;;;;4930360;28;19927;-59
2022/05/23 12:54:29;;;;;;;;;;;21.50;44.90;;;;;;4927281;28;19938;-58
2022/05/23 12:57:02;;;;;;;;;;;21.50;45.40;;;;;;4938237;28;20455;-48
2022/05/23 12:59:47;;;;;;;;;;;21.50;44.90;;;;;;4931163;28;19931;-48
2022/05/23 13:02:15;;;;;;;;;;;21.60;45.00;;;;;;4968553;28;20326;-53
2022/05/23 13:04:47;;;;;;;;;;;21.60;45.00;;;;;;4953815;28;19933;-46
2022/05/23 13:07:17;;;;;;;;;;;21.60;45.00;;;;;;4933037;28;19935;-50
2022/05/23 13:09:45;;;;;;;;;;;21.60;45.00;;;;;;4952057;28;19939;-50
2022/05/23 13:12:13;;;;;;;;;;;21.60;45.00;;;;;;4948963;28;20391;-51
2022/05/23 13:14:46;;;;;;;;;;;21.60;45.10;;;;;;4933708;28;20019;-50
2022/05/23 13:17:13;;;;;;;;;;;21.60;45.10;;;;;;4928882;28;19964;-46
2022/05/23 13:22:34;;;;;;;;;;;21.60;45.40;;;;;;5014377;28;19991;-51
2022/05/23 13:25:01;;;;;;;;;;;21.60;45.50;;;;;;4960404;28;20438;-50
2022/05/23 13:27:28;;;;;;;;;;;21.60;46.10;;;;;;4949828;28;19941;-48
2022/05/23 13:29:55;;;;;;;;;;;21.60;45.70;;;;;;4938451;28;19973;-52
2022/05/23 13:32:22;;;;;;;;;;;21.70;45.80;;;;;;4943930;28;19939;-45
2022/05/23 13:34:49;;;;;;;;;;;21.70;45.70;;;;;;4954707;28;19934;-51
2022/05/23 13:37:25;;;;;;;;;;;21.70;45.70;;;;;;4933329;29;19931;-50
2022/05/23 13:39:53;;;;;;;;;;;21.70;45.70;;;;;;4961013;28;19964;-48
2022/05/23 13:42:21;;;;;;;;;;;21.70;45.70;;;;;;4936049;28;20020;-49
2022/05/23 13:44:48;;;;;;;;;;;21.70;45.60;;;;;;4948555;28;19926;-48
2022/05/23 13:47:16;;;;;;;;;;;21.70;45.60;;;;;;4944050;28;19926;-47
2022/05/23 13:49:44;;;;;;;;;;;21.70;45.60;;;;;;4963667;28;19931;-50
2022/05/23 13:52:11;;;;;;;;;;;21.70;45.60;;;;;;4956308;28;20327;-51
2022/05/23 13:54:40;;;;;;;;;;;21.70;45.60;;;;;;4946534;28;19934;-48
2022/05/23 13:57:10;;;;;;;;;;;21.70;45.50;;;;;;4943508;28;19934;-50
2022/05/23 13:59:38;;;;;;;;;;;21.70;45.50;;;;;;4941479;28;19973;-48
2022/05/23 14:02:06;;;;;;;;;;;21.70;45.50;;;;;;4934540;29;19926;-51
2022/05/23 14:04:33;;;;;;;;;;;21.70;45.50;;;;;;4953827;28;20380;-45
2022/05/23 14:07:00;;;;;;;;;;;21.70;45.50;;;;;;4936671;28;19998;-52
2022/05/23 14:09:27;;;;;;;;;;;21.70;45.50;;;;;;4936114;28;19937;-56
2022/05/23 14:11:55;;;;;;;;;;;21.70;45.40;;;;;;4930863;28;19930;-52
2022/05/23 14:14:26;;;;;;;;;;;21.70;45.40;;;;;;4958557;28;19927;-46
2022/05/23 14:16:54;;;;;;;;;;;21.70;45.40;;;;;;4956887;28;19989;-49
2022/05/23 14:19:22;;;;;;;;;;;21.70;45.50;;;;;;4949523;28;20454;-53
2022/05/23 14:21:48;;;;;;;;;;;21.70;45.40;;;;;;4950740;28;19989;-49
2022/05/23 14:24:16;;;;;;;;;;;21.70;45.40;;;;;;4948161;28;20021;-50
2022/05/23 14:26:43;;;;;;;;;;;21.70;45.40;;;;;;4953495;28;19935;-47
2022/05/23 14:29:11;;;;;;;;;;;21.70;45.40;;;;;;4954451;28;19963;-45
2022/05/23 14:31:42;;;;;;;;;;;21.70;45.40;;;;;;4948992;28;19937;-50
2022/05/23 14:34:10;;;;;;;;;;;21.70;45.40;;;;;;4933013;28;20016;-50
2022/05/23 14:36:39;;;;;;;;;;;21.70;45.40;;;;;;4947005;28;19929;-50
2022/05/23 14:39:08;;;;;;;;;;;21.70;45.40;;;;;;4957991;28;19942;-48
2022/05/23 14:41:35;;;;;;;;;;;21.70;45.40;;;;;;4965316;28;19930;-49
2022/05/23 14:44:02;;;;;;;;;;;21.70;45.40;;;;;;4947623;28;19926;-50
2022/05/23 14:46:29;;;;;;;;;;;21.70;45.30;;;;;;4959804;28;19931;-52
2022/05/23 14:48:58;;;;;;;;;;;21.70;45.40;;;;;;4937162;28;19930;-48
2022/05/23 14:51:26;;;;;;;;;;;21.70;45.30;;;;;;4955197;28;19970;-48
2022/05/23 14:56:42;;;;;;;;;;;21.70;45.30;;;;;;4939774;28;19934;-48
2022/05/23 15:01:56;;;;;;;;;;;21.70;45.30;;;;;;4936569;28;19981;-51
2022/05/23 15:04:26;;;;;;;;;;;21.70;45.30;;;;;;4960661;28;20057;-52
2022/05/23 15:06:54;;;;;;;;;;;21.70;45.20;;;;;;4951254;28;19927;-54
2022/05/23 15:09:21;;;;;;;;;;;21.70;45.30;;;;;;5015369;28;19938;-54
2022/05/23 15:11:48;;;;;;;;;;;21.70;45.30;;;;;;4934515;28;19937;-50
2022/05/23 15:14:15;;;;;;;;;;;21.70;45.30;;;;;;4951305;28;19978;-51
2022/05/23 15:16:42;;;;;;;;;;;21.70;45.80;;;;;;4933970;28;19997;-52
2022/05/23 15:19:09;;;;;;;;;;;21.70;45.20;;;;;;4930061;28;19927;-54
2022/05/23 15:21:37;;;;;;;;;;;21.70;45.20;;;;;;4962334;28;19931;-53
2022/05/23 15:24:05;;;;;;;;;;;21.70;45.30;;;;;;4944451;28;19954;-54
2022/05/23 15:26:32;;;;;;;;;;;21.70;45.30;;;;;;4934726;28;20283;-52
2022/05/23 15:28:58;;;;;;;;;;;21.70;45.20;;;;;;4941153;28;20014;-48